Boulder City, Nevada
Current Conditions -  °F | °C
As of 12:55 PM on Tuesday 25 Nov 2014 (Local Time) from KBVU Reporting Station
Clear Clear  
Wind Chill: 61°   Ceiling: Unl
Heat Index: 61°   Visibility: 10mi
Dew Point: 18°   Wind: 0mph
Humidity: 19%   Direction: NA
Pressure: 30.4"   Gusts: NA
Location:  35.98°N, 114.83°W
Report Text: KBVU 252055Z AUTO 00000KT 10SM CLR 16/M08 A3040 RMK AO2
Loading
Personal Weather Stations






























Interactive Weather Map New forecast layout! Learn more

10-Day Weather Forecast

Advertisements
Track Severe Weather on mobile